createdAt,value
2019-05-23T00:01:23.449Z,10.80
2019-05-23T00:03:55.916Z,9.93
2019-05-23T00:06:31.713Z,14.05
2019-05-23T00:09:00.668Z,13.85
2019-05-23T00:11:40.523Z,11.75
2019-05-23T00:14:19.810Z,13.22
2019-05-23T00:16:48.956Z,11.90
2019-05-23T00:19:18.457Z,11.15
2019-05-23T00:21:46.885Z,11.10
2019-05-23T00:24:15.745Z,12.82
2019-05-23T00:26:45.213Z,9.13
2019-05-23T00:29:14.293Z,10.38
2019-05-23T00:31:45.156Z,10.70
2019-05-23T00:34:14.547Z,9.88
2019-05-23T00:36:44.857Z,11.85
2019-05-23T00:39:14.517Z,11.43
2019-05-23T00:41:43.112Z,10.90
2019-05-23T00:44:11.889Z,11.55
2019-05-23T00:46:41.576Z,12.13
2019-05-23T00:49:11.722Z,11.85
2019-05-23T00:51:41.674Z,9.65
2019-05-23T00:54:11.228Z,9.20
2019-05-23T00:56:39.694Z,12.88
2019-05-23T00:59:24.244Z,8.28
2019-05-23T01:01:41.112Z,9.28
2019-05-23T01:04:10.852Z,9.38
2019-05-23T01:06:38.977Z,8.95
2019-05-23T01:09:07.862Z,10.38
2019-05-23T01:11:36.624Z,9.13
2019-05-23T01:14:05.841Z,10.82
2019-05-23T01:16:34.234Z,9.10
2019-05-23T01:19:02.589Z,9.98
2019-05-23T01:21:48.816Z,10.15
2019-05-23T01:24:27.684Z,10.43
2019-05-23T01:26:56.338Z,9.90
2019-05-23T01:29:26.463Z,14.33
2019-05-23T01:32:14.965Z,8.38
2019-05-23T01:34:44.731Z,8.90
2019-05-23T01:37:14.016Z,10.43
2019-05-23T01:39:42.825Z,9.18
2019-05-23T01:42:11.262Z,9.75
2019-05-23T01:44:40.512Z,9.78
2019-05-23T01:47:10.380Z,7.92
2019-05-23T01:49:38.817Z,8.13
2019-05-23T01:52:09.034Z,8.45
2019-05-23T01:54:38.689Z,9.63
2019-05-23T01:57:07.633Z,10.08
2019-05-23T01:59:36.498Z,12.33
2019-05-23T02:02:06.660Z,10.53
2019-05-23T02:04:35.509Z,10.08
2019-05-23T02:07:04.544Z,9.80
2019-05-23T02:09:32.994Z,10.23
2019-05-23T02:12:01.470Z,11.22
2019-05-23T02:14:30.021Z,8.58
2019-05-23T02:16:58.437Z,12.05
2019-05-23T02:19:28.250Z,8.60
2019-05-23T02:21:57.498Z,9.90
2019-05-23T02:24:26.844Z,11.08
2019-05-23T02:26:56.091Z,11.50
2019-05-23T02:29:25.724Z,8.48
2019-05-23T02:31:54.890Z,9.93
2019-05-23T02:34:24.929Z,11.03
2019-05-23T02:36:56.233Z,8.25
2019-05-23T02:39:41.270Z,9.75
2019-05-23T02:42:16.982Z,9.68
2019-05-23T02:44:45.437Z,10.08
2019-05-23T02:47:19.122Z,10.08
2019-05-23T02:49:49.420Z,10.43
2019-05-23T02:52:31.497Z,10.28
2019-05-23T02:55:01.145Z,9.08
2019-05-23T02:57:30.311Z,10.20
2019-05-23T03:00:03.338Z,9.98
2019-05-23T03:02:43.957Z,10.82
2019-05-23T03:05:14.314Z,9.30
2019-05-23T03:07:45.227Z,11.55
2019-05-23T03:10:15.911Z,9.85
2019-05-23T03:12:46.422Z,9.68
2019-05-23T03:15:16.834Z,12.05
2019-05-23T03:17:48.787Z,9.93
2019-05-23T03:20:19.351Z,9.45
2019-05-23T03:22:50.920Z,10.65
2019-05-23T03:25:30.328Z,11.10
2019-05-23T03:28:00.841Z,8.53
2019-05-23T03:30:36.809Z,11.95
2019-05-23T03:33:12.686Z,9.53
2019-05-23T03:35:43.165Z,9.25
2019-05-23T03:38:12.867Z,11.63
2019-05-23T03:40:42.389Z,9.15
2019-05-23T03:43:11.635Z,10.20
2019-05-23T03:45:43.900Z,9.50
2019-05-23T03:48:13.756Z,7.90
2019-05-23T03:50:43.932Z,7.10
2019-05-23T03:53:12.974Z,7.47
2019-05-23T03:55:42.571Z,8.63
2019-05-23T03:58:11.748Z,8.43
2019-05-23T04:00:41.800Z,7.25
2019-05-23T04:03:11.783Z,7.03
2019-05-23T04:05:40.933Z,7.85
2019-05-23T04:08:09.726Z,9.13
2019-05-23T04:10:38.194Z,9.30
2019-05-23T04:13:06.649Z,8.15
2019-05-23T04:15:35.992Z,10.70
2019-05-23T04:18:04.937Z,10.08
2019-05-23T04:20:33.809Z,9.30
2019-05-23T04:23:02.362Z,9.30
2019-05-23T04:25:31.142Z,9.90
2019-05-23T04:28:00.293Z,11.00
2019-05-23T04:30:29.132Z,10.13
2019-05-23T04:32:58.012Z,10.20
2019-05-23T04:35:27.054Z,11.78
2019-05-23T04:37:55.548Z,12.25
2019-05-23T04:40:24.224Z,11.78
2019-05-23T04:42:53.101Z,9.98
2019-05-23T04:45:22.082Z,9.63
2019-05-23T04:47:50.986Z,14.75
2019-05-23T04:50:20.195Z,12.25
2019-05-23T04:52:48.877Z,13.65
2019-05-23T04:55:19.013Z,13.08
2019-05-23T04:57:47.968Z,18.30
2019-05-23T05:00:18.541Z,12.30
2019-05-23T05:02:47.579Z,14.03
2019-05-23T05:05:16.821Z,14.90
2019-05-23T05:07:45.425Z,12.35
2019-05-23T05:10:17.211Z,13.22
2019-05-23T05:12:45.736Z,15.90
2019-05-23T05:15:14.293Z,13.10
2019-05-23T05:17:43.145Z,10.88
2019-05-23T05:20:11.976Z,9.73
2019-05-23T05:22:40.871Z,12.40
2019-05-23T05:25:09.994Z,16.05
2019-05-23T05:27:39.360Z,13.75
2019-05-23T05:30:09.902Z,12.98
2019-05-23T05:32:44.929Z,15.23
2019-05-23T05:35:09.224Z,18.05
2019-05-23T05:37:37.712Z,17.27
2019-05-23T05:40:07.917Z,17.23
2019-05-23T05:42:37.773Z,20.23
2019-05-23T05:45:10.281Z,18.60
2019-05-23T05:47:38.845Z,18.27
2019-05-23T05:50:08.081Z,14.93
2019-05-23T05:52:38.237Z,13.72
2019-05-23T05:55:08.585Z,14.00
2019-05-23T05:57:37.234Z,15.53
2019-05-23T06:00:27.572Z,17.90
2019-05-23T06:03:04.404Z,19.15
2019-05-23T06:05:31.864Z,15.08
2019-05-23T06:08:01.065Z,17.17
2019-05-23T06:10:29.472Z,11.57
2019-05-23T06:12:57.925Z,11.95
2019-05-23T06:15:26.323Z,11.75
2019-05-23T06:17:55.613Z,10.93
2019-05-23T06:20:24.093Z,16.23
2019-05-23T06:22:52.260Z,13.43
2019-05-23T06:25:20.865Z,13.50
2019-05-23T06:27:48.962Z,18.07
2019-05-23T06:30:18.493Z,12.53
2019-05-23T06:32:46.973Z,13.98
2019-05-23T06:35:15.452Z,15.28
2019-05-23T06:37:44.218Z,11.53
2019-05-23T06:40:13.479Z,15.43
2019-05-23T06:42:41.701Z,10.45
2019-05-23T06:45:11.659Z,12.20
2019-05-23T06:47:40.523Z,15.32
2019-05-23T06:50:16.246Z,11.85
2019-05-23T06:52:44.854Z,11.48
2019-05-23T06:55:13.380Z,10.40
2019-05-23T06:57:41.949Z,12.13
2019-05-23T07:00:10.994Z,10.50
2019-05-23T07:02:40.415Z,10.25
2019-05-23T07:05:08.929Z,9.05
2019-05-23T07:07:38.254Z,11.60
2019-05-23T07:10:08.128Z,8.60
2019-05-23T07:12:36.807Z,11.68
2019-05-23T07:15:07.664Z,8.30
2019-05-23T07:17:36.423Z,7.95
2019-05-23T07:20:09.246Z,7.67
2019-05-23T07:22:37.716Z,6.67
2019-05-23T07:25:08.418Z,5.55
2019-05-23T07:27:37.290Z,8.48
2019-05-23T07:30:11.773Z,9.80
2019-05-23T07:32:40.237Z,11.50
2019-05-23T07:35:09.080Z,10.93
2019-05-23T07:37:37.485Z,9.70
2019-05-23T07:40:27.200Z,8.30
2019-05-23T07:42:56.116Z,9.80
2019-05-23T07:45:43.025Z,9.35
2019-05-23T07:48:12.873Z,8.63
2019-05-23T07:50:41.347Z,11.25
2019-05-23T07:53:11.382Z,7.65
2019-05-23T07:55:45.047Z,7.95
2019-05-23T07:58:15.941Z,7.62
2019-05-23T08:00:49.113Z,6.87
2019-05-23T08:03:17.563Z,7.00
2019-05-23T08:05:46.509Z,7.33
2019-05-23T08:08:14.780Z,7.25
2019-05-23T08:10:43.285Z,6.62
2019-05-23T08:13:11.692Z,8.18
2019-05-23T08:15:40.483Z,5.87
2019-05-23T08:18:08.897Z,9.40
2019-05-23T08:20:37.309Z,5.58
2019-05-23T08:23:05.722Z,8.03
2019-05-23T08:25:34.316Z,7.03
2019-05-23T08:28:02.891Z,6.05
2019-05-23T08:30:31.677Z,7.72
2019-05-23T08:33:00.225Z,7.05
2019-05-23T08:35:28.376Z,9.08
2019-05-23T08:37:56.795Z,7.30
2019-05-23T08:40:25.208Z,7.83
2019-05-23T08:42:53.674Z,7.53
2019-05-23T08:45:22.601Z,5.70
2019-05-23T08:47:50.958Z,6.47
2019-05-23T08:50:20.364Z,6.22
2019-05-23T08:52:48.774Z,5.70
2019-05-23T08:55:22.753Z,6.67
2019-05-23T08:57:52.197Z,6.60
2019-05-23T09:00:22.651Z,6.75
2019-05-23T09:02:51.757Z,6.42
2019-05-23T09:05:22.285Z,5.58
2019-05-23T09:07:51.337Z,6.85
2019-05-23T09:10:20.228Z,6.58
2019-05-23T09:12:48.708Z,6.47
2019-05-23T09:15:17.279Z,5.78
2019-05-23T09:17:52.916Z,8.90
2019-05-23T09:20:16.606Z,6.15
2019-05-23T09:22:45.086Z,7.37
2019-05-23T09:28:37.033Z,7.70
2019-05-23T09:31:05.806Z,7.85
2019-05-23T09:33:34.217Z,5.58
2019-05-23T09:36:02.689Z,7.20
2019-05-23T09:38:31.089Z,5.67
2019-05-23T09:40:59.650Z,4.92
2019-05-23T09:43:28.132Z,8.33
2019-05-23T09:45:56.545Z,6.05
2019-05-23T09:48:25.028Z,7.30
2019-05-23T09:50:53.436Z,8.43
2019-05-23T09:53:22.314Z,5.75
2019-05-23T09:55:50.401Z,8.00
2019-05-23T09:58:18.815Z,6.17
2019-05-23T10:00:47.231Z,6.37
2019-05-23T10:03:15.683Z,6.80
2019-05-23T10:05:44.517Z,5.53
2019-05-23T10:08:12.915Z,8.30
2019-05-23T10:10:41.472Z,6.25
2019-05-23T10:13:09.654Z,5.72
2019-05-23T10:15:39.787Z,5.97
2019-05-23T10:18:09.927Z,6.75
2019-05-23T10:20:39.952Z,6.25
2019-05-23T10:23:08.429Z,6.28
2019-05-23T10:25:36.848Z,4.42
2019-05-23T10:28:05.391Z,5.33
2019-05-23T10:30:33.826Z,6.15
2019-05-23T10:33:01.891Z,3.47
2019-05-23T10:35:31.349Z,4.42
2019-05-23T10:38:00.153Z,5.40
2019-05-23T10:40:29.474Z,6.90
2019-05-23T10:42:57.942Z,5.28
2019-05-23T10:45:26.362Z,3.40
2019-05-23T10:47:55.090Z,7.30
2019-05-23T10:50:23.242Z,4.80
2019-05-23T10:52:51.385Z,6.97
2019-05-23T10:55:19.549Z,5.95
2019-05-23T10:57:47.617Z,5.50
2019-05-23T11:00:17.341Z,4.53
2019-05-23T11:02:46.496Z,4.83
2019-05-23T11:05:15.613Z,5.80
2019-05-23T11:07:43.761Z,5.75
2019-05-23T11:10:13.977Z,7.33
2019-05-23T11:12:42.516Z,5.62
2019-05-23T11:15:11.681Z,4.80
2019-05-23T11:17:40.166Z,6.15
2019-05-23T11:20:10.641Z,6.65
2019-05-23T11:22:39.285Z,5.40
2019-05-23T11:25:11.775Z,5.50
2019-05-23T11:27:40.561Z,4.75
2019-05-23T11:30:26.576Z,4.30
2019-05-23T11:32:55.039Z,5.62
2019-05-23T11:35:23.520Z,4.70
2019-05-23T11:37:51.619Z,5.62
2019-05-23T11:40:20.361Z,4.92
2019-05-23T11:42:52.357Z,6.58
2019-05-23T11:45:19.168Z,5.50
2019-05-23T11:47:47.605Z,6.95
2019-05-23T11:50:16.178Z,7.35
2019-05-23T11:52:44.645Z,6.50
2019-05-23T11:55:13.505Z,5.33
2019-05-23T11:57:42.556Z,5.30
2019-05-23T12:00:12.788Z,8.13
2019-05-23T12:02:42.513Z,8.20
2019-05-23T12:05:13.708Z,9.70
2019-05-23T12:07:42.109Z,7.92
2019-05-23T12:10:11.229Z,5.87
2019-05-23T12:12:39.648Z,4.58
2019-05-23T12:15:12.524Z,5.70
2019-05-23T12:17:41.761Z,6.90
2019-05-23T12:20:10.760Z,7.85
2019-05-23T12:22:39.507Z,6.78
2019-05-23T12:25:20.996Z,5.45
2019-05-23T12:27:39.969Z,7.30
2019-05-23T12:30:12.554Z,8.33
2019-05-23T12:32:41.386Z,7.00
2019-05-23T12:35:11.852Z,3.77
2019-05-23T12:37:39.492Z,6.40
2019-05-23T12:40:09.985Z,6.45
2019-05-23T12:42:38.407Z,7.30
2019-05-23T12:45:09.323Z,4.83
2019-05-23T12:47:45.364Z,4.90
2019-05-23T12:50:18.210Z,4.08
2019-05-23T12:52:47.370Z,6.10
2019-05-23T12:55:16.159Z,5.30
2019-05-23T12:57:44.848Z,6.87
2019-05-23T13:00:15.635Z,5.20
2019-05-23T13:02:44.117Z,4.65
2019-05-23T13:05:12.753Z,5.87
2019-05-23T13:07:41.286Z,4.15
2019-05-23T13:10:09.741Z,5.08
2019-05-23T13:12:38.239Z,4.58
2019-05-23T13:15:08.177Z,5.55
2019-05-23T13:17:36.600Z,3.75
2019-05-23T13:20:07.236Z,5.10
2019-05-23T13:22:35.782Z,5.42
2019-05-23T13:25:06.504Z,4.87
2019-05-23T13:27:35.162Z,4.35
2019-05-23T13:30:05.604Z,4.55
2019-05-23T13:32:34.813Z,5.62
2019-05-23T13:35:03.983Z,4.42
2019-05-23T13:37:32.463Z,5.08
2019-05-23T13:40:00.537Z,6.95
2019-05-23T13:42:28.960Z,5.20
2019-05-23T13:44:57.778Z,5.35
2019-05-23T13:47:26.185Z,5.75
2019-05-23T13:49:54.693Z,6.78
2019-05-23T13:52:23.120Z,4.85
2019-05-23T13:54:51.675Z,4.25
2019-05-23T13:57:20.081Z,4.78
2019-05-23T13:59:49.241Z,9.88
2019-05-23T14:02:18.093Z,6.05
2019-05-23T14:04:46.586Z,6.15
2019-05-23T14:07:16.575Z,4.58
2019-05-23T14:10:06.147Z,6.15
2019-05-23T14:12:35.231Z,3.87
2019-05-23T14:15:07.900Z,4.75
2019-05-23T14:17:41.062Z,5.20
2019-05-23T14:20:09.917Z,8.75
2019-05-23T14:22:40.033Z,4.78
2019-05-23T14:25:09.029Z,8.15
2019-05-23T14:27:39.115Z,5.00
2019-05-23T14:30:13.004Z,4.17
2019-05-23T14:32:50.497Z,4.95
2019-05-23T14:35:20.221Z,7.92
2019-05-23T14:37:50.272Z,4.30
2019-05-23T14:40:18.366Z,7.35
2019-05-23T14:42:54.505Z,5.83
2019-05-23T14:45:42.573Z,4.90
2019-05-23T14:48:15.622Z,7.47
2019-05-23T14:50:45.748Z,7.37
2019-05-23T14:53:18.783Z,4.53
2019-05-23T14:55:48.948Z,4.72
2019-05-23T14:58:17.486Z,8.70
2019-05-23T15:00:47.347Z,4.42
2019-05-23T15:03:16.496Z,5.58
2019-05-23T15:05:44.967Z,6.25
2019-05-23T15:08:13.916Z,5.83
2019-05-23T15:10:42.333Z,3.90
2019-05-23T15:13:11.000Z,5.10
2019-05-23T15:15:39.586Z,5.58
2019-05-23T15:18:08.770Z,4.85
2019-05-23T15:20:37.251Z,4.92
2019-05-23T15:23:05.658Z,6.50
2019-05-23T15:25:34.074Z,4.85
2019-05-23T15:28:02.700Z,3.30
2019-05-23T15:30:30.873Z,3.77
2019-05-23T15:32:59.284Z,4.60
2019-05-23T15:35:27.836Z,3.95
2019-05-23T15:37:56.240Z,4.47
2019-05-23T15:40:24.727Z,3.10
2019-05-23T15:42:53.694Z,4.83
2019-05-23T15:45:22.177Z,4.10
2019-05-23T15:47:50.589Z,4.62
2019-05-23T15:50:20.700Z,4.35
2019-05-23T15:52:53.392Z,3.25
2019-05-23T15:55:45.758Z,4.60
2019-05-23T15:58:27.707Z,4.62
2019-05-23T16:00:57.826Z,3.50
2019-05-23T16:03:44.388Z,2.40
2019-05-23T16:06:15.895Z,2.58
2019-05-23T16:08:44.031Z,3.47
2019-05-23T16:11:12.441Z,2.90
2019-05-23T16:13:40.989Z,3.45
2019-05-23T16:16:09.949Z,3.90
2019-05-23T16:18:38.441Z,3.40
2019-05-23T16:21:06.991Z,3.98
2019-05-23T16:23:35.865Z,3.25
2019-05-23T16:26:04.676Z,3.62
2019-05-23T16:28:33.079Z,4.25
2019-05-23T16:31:01.506Z,2.72
2019-05-23T16:33:29.909Z,2.62
2019-05-23T16:35:58.586Z,3.15
2019-05-23T16:38:27.009Z,6.83
2019-05-23T16:40:55.488Z,5.05
2019-05-23T16:43:23.886Z,4.58
2019-05-23T16:45:52.664Z,2.95
2019-05-23T16:48:21.150Z,2.17
2019-05-23T16:50:49.561Z,2.75
2019-05-23T16:53:17.965Z,3.15
2019-05-23T16:55:57.138Z,2.60
2019-05-23T16:58:39.430Z,3.10
2019-05-23T17:01:23.525Z,2.77
2019-05-23T17:03:52.804Z,4.17
2019-05-23T17:06:22.887Z,3.52
2019-05-23T17:09:09.036Z,4.15
2019-05-23T17:11:39.099Z,7.05
2019-05-23T17:14:09.150Z,3.02
2019-05-23T17:16:44.888Z,5.17
2019-05-23T17:19:20.910Z,3.22
2019-05-23T17:21:59.865Z,4.58
2019-05-23T17:24:32.817Z,3.95
2019-05-23T17:27:11.256Z,3.17
2019-05-23T17:29:44.417Z,5.30
2019-05-23T17:32:14.473Z,4.47
2019-05-23T17:34:43.154Z,3.80
2019-05-23T17:37:12.836Z,2.37
2019-05-23T17:39:42.838Z,4.35
2019-05-23T17:42:11.409Z,3.00
2019-05-23T17:44:40.093Z,2.87
2019-05-23T17:47:08.509Z,3.62
2019-05-23T17:49:37.350Z,4.35
2019-05-23T17:52:06.301Z,3.80
2019-05-23T17:54:35.368Z,3.27
2019-05-23T17:57:07.249Z,4.40
2019-05-23T17:59:35.378Z,2.80
2019-05-23T18:02:04.441Z,5.80
2019-05-23T18:04:32.838Z,5.12
2019-05-23T18:07:01.327Z,2.70
2019-05-23T18:09:30.094Z,3.35
2019-05-23T18:11:59.444Z,2.27
2019-05-23T18:14:27.913Z,1.47
2019-05-23T18:16:56.488Z,2.45
2019-05-23T18:19:25.472Z,3.15
2019-05-23T18:21:54.013Z,3.83
2019-05-23T18:24:23.739Z,1.60
2019-05-23T18:26:52.770Z,3.20
2019-05-23T18:29:21.200Z,2.02
2019-05-23T18:31:51.965Z,1.72
2019-05-23T18:34:20.127Z,2.47
2019-05-23T18:36:48.865Z,2.85
2019-05-23T18:39:18.590Z,2.58
2019-05-23T18:41:47.058Z,1.20
2019-05-23T18:44:16.480Z,1.80
2019-05-23T18:46:52.543Z,3.90
2019-05-23T18:49:21.025Z,2.85
2019-05-23T18:51:49.996Z,3.95
2019-05-23T18:54:18.859Z,2.92
2019-05-23T18:56:47.337Z,1.50
2019-05-23T18:59:16.449Z,1.77
2019-05-23T19:01:44.981Z,2.58
2019-05-23T19:04:14.025Z,1.50
2019-05-23T19:06:43.301Z,1.45
2019-05-23T19:09:13.457Z,2.47
2019-05-23T19:11:41.869Z,2.83
2019-05-23T19:14:10.357Z,1.70
2019-05-23T19:16:39.763Z,2.25
2019-05-23T19:19:08.811Z,1.77
2019-05-23T19:21:37.287Z,1.50
2019-05-23T19:24:06.133Z,1.42
2019-05-23T19:26:34.745Z,2.77
2019-05-23T19:29:03.531Z,2.20
2019-05-23T19:31:32.636Z,2.37
2019-05-23T19:34:01.068Z,1.55
2019-05-23T19:36:29.142Z,3.27
2019-05-23T19:38:57.625Z,4.00
2019-05-23T19:41:36.723Z,2.80
2019-05-23T19:43:55.849Z,2.80
2019-05-23T19:46:24.492Z,3.85
2019-05-23T19:48:54.018Z,4.70
2019-05-23T19:51:22.572Z,1.32
2019-05-23T19:53:51.156Z,2.00
2019-05-23T19:56:19.793Z,2.12
2019-05-23T19:58:48.220Z,3.90
2019-05-23T20:01:16.670Z,2.00
2019-05-23T20:03:45.726Z,4.25
2019-05-23T20:06:14.128Z,2.55
2019-05-23T20:08:44.093Z,2.98
2019-05-23T20:11:12.559Z,4.50
2019-05-23T20:13:41.114Z,2.62
2019-05-23T20:16:09.657Z,2.08
2019-05-23T20:18:38.196Z,2.55
2019-05-23T20:21:07.273Z,2.92
2019-05-23T20:23:35.763Z,1.65
2019-05-23T20:26:07.912Z,6.22
2019-05-23T20:28:35.248Z,3.83
2019-05-23T20:31:06.068Z,3.25
2019-05-23T20:33:34.563Z,3.42
2019-05-23T20:36:04.506Z,3.33
2019-05-23T20:38:33.192Z,3.35
2019-05-23T20:41:01.888Z,4.87
2019-05-23T20:43:30.368Z,3.87
2019-05-23T20:45:58.777Z,5.28
2019-05-23T20:48:27.971Z,7.62
2019-05-23T20:50:56.392Z,4.35
2019-05-23T20:53:25.147Z,5.03
2019-05-23T20:55:53.216Z,3.77
2019-05-23T20:58:21.753Z,3.47
2019-05-23T21:00:51.822Z,2.47
2019-05-23T21:03:21.192Z,2.30
2019-05-23T21:05:50.046Z,2.87
2019-05-23T21:08:18.128Z,6.33
2019-05-23T21:10:48.450Z,3.80
2019-05-23T21:13:17.958Z,4.15
2019-05-23T21:15:47.231Z,2.62
2019-05-23T21:18:15.374Z,2.58
2019-05-23T21:20:43.525Z,4.60
2019-05-23T21:23:11.987Z,2.50
2019-05-23T21:25:41.789Z,2.83
2019-05-23T21:28:10.265Z,2.42
2019-05-23T21:30:38.758Z,1.65
2019-05-23T21:33:07.164Z,3.83
2019-05-23T21:35:35.240Z,2.25
2019-05-23T21:38:03.723Z,2.62
2019-05-23T21:40:38.331Z,3.40
2019-05-23T21:43:07.185Z,2.45
2019-05-23T21:45:35.659Z,4.03
2019-05-23T21:48:04.597Z,4.10
2019-05-23T21:50:33.363Z,5.78
2019-05-23T21:53:02.000Z,3.58
2019-05-23T21:55:31.617Z,5.35
2019-05-23T21:58:00.026Z,4.03
2019-05-23T22:00:45.237Z,6.20
2019-05-23T22:03:15.369Z,5.55
2019-05-23T22:06:03.201Z,5.97
2019-05-23T22:08:32.501Z,3.30
2019-05-23T22:11:00.989Z,1.90
2019-05-23T22:13:29.465Z,1.90
2019-05-23T22:16:00.726Z,1.72
2019-05-23T22:18:29.374Z,2.75
2019-05-23T22:20:57.858Z,2.30
2019-05-23T22:23:26.323Z,5.58
2019-05-23T22:25:54.739Z,3.00
2019-05-23T22:28:23.323Z,4.53
2019-05-23T22:30:51.805Z,2.90
2019-05-23T22:33:21.525Z,4.60
2019-05-23T22:35:50.008Z,2.17
2019-05-23T22:38:18.493Z,1.62
2019-05-23T22:40:46.977Z,1.80
2019-05-23T22:43:21.001Z,3.55
2019-05-23T22:45:46.127Z,3.42
2019-05-23T22:48:14.539Z,3.02
2019-05-23T22:50:42.950Z,3.92
2019-05-23T22:53:11.368Z,2.60
2019-05-23T22:55:39.777Z,2.37
2019-05-23T22:58:08.203Z,4.30
2019-05-23T23:00:40.860Z,1.62
2019-05-23T23:03:09.284Z,1.95
2019-05-23T23:05:37.775Z,1.92
2019-05-23T23:08:06.252Z,1.92
2019-05-23T23:10:34.332Z,1.75
2019-05-23T23:13:02.739Z,3.35
2019-05-23T23:15:32.225Z,1.52
2019-05-23T23:18:00.299Z,1.50
2019-05-23T23:20:28.378Z,2.50
2019-05-23T23:22:56.772Z,2.25
2019-05-23T23:25:25.268Z,4.53
2019-05-23T23:27:53.671Z,2.98
2019-05-23T23:30:23.727Z,2.25
2019-05-23T23:32:52.145Z,3.87
2019-05-23T23:35:20.557Z,1.87
2019-05-23T23:37:48.977Z,1.72
2019-05-23T23:40:17.415Z,2.22
2019-05-23T23:42:45.885Z,3.22
2019-05-23T23:45:32.168Z,2.95
2019-05-23T23:48:18.454Z,1.80
2019-05-23T23:51:04.790Z,2.40
2019-05-23T23:53:51.364Z,2.22
2019-05-23T23:56:37.982Z,2.50
2019-05-23T23:59:05.768Z,1.47
